createdAt,value
2024-03-05T00:00:34.714Z,14.26
2024-03-05T00:03:43.302Z,14.41
2024-03-05T00:06:49.859Z,13.64
2024-03-05T00:09:57.525Z,13.96
2024-03-05T00:13:04.609Z,13.91
2024-03-05T00:16:11.902Z,14.36
2024-03-05T00:19:19.872Z,13.81
2024-03-05T00:22:26.806Z,13.82
2024-03-05T00:25:33.552Z,13.92
2024-03-05T00:28:40.342Z,13.78
2024-03-05T00:31:47.020Z,13.67
2024-03-05T00:34:55.236Z,13.35
2024-03-05T00:38:02.087Z,13.46
2024-03-05T00:41:10.158Z,13.56
2024-03-05T00:44:18.334Z,14.02
2024-03-05T00:47:24.936Z,13.91
2024-03-05T00:50:33.046Z,14.18
2024-03-05T00:53:39.604Z,13.98
2024-03-05T00:56:46.428Z,13.50
2024-03-05T00:59:54.768Z,13.96
2024-03-05T01:03:01.744Z,13.92
2024-03-05T01:06:10.242Z,13.92
2024-03-05T01:09:20.312Z,13.84
2024-03-05T01:12:26.928Z,13.91
2024-03-05T01:15:33.689Z,13.91
2024-03-05T01:18:40.140Z,14.12
2024-03-05T01:21:48.556Z,14.36
2024-03-05T01:24:55.012Z,13.89
2024-03-05T01:28:01.575Z,14.39
2024-03-05T01:31:10.090Z,14.27
2024-03-05T01:34:17.524Z,14.14
2024-03-05T01:37:25.950Z,14.50
2024-03-05T01:40:32.593Z,14.39
2024-03-05T01:43:39.311Z,14.48
2024-03-05T01:46:46.831Z,14.49
2024-03-05T01:49:53.547Z,14.50
2024-03-05T01:53:01.892Z,14.75
2024-03-05T01:56:09.515Z,14.92
2024-03-05T01:59:17.053Z,14.69
2024-03-05T02:02:24.448Z,14.47
2024-03-05T02:05:31.789Z,14.63
2024-03-05T02:08:41.240Z,14.53
2024-03-05T02:11:53.031Z,14.36
2024-03-05T02:15:06.445Z,14.50
2024-03-05T02:18:13.531Z,14.26
2024-03-05T02:21:25.242Z,14.28
2024-03-05T02:24:32.027Z,14.36
2024-03-05T02:27:39.358Z,14.41
2024-03-05T02:30:46.324Z,13.86
2024-03-05T02:33:55.090Z,13.50
2024-03-05T02:37:04.916Z,14.13
2024-03-05T02:40:14.774Z,14.10
2024-03-05T02:43:22.385Z,14.53
2024-03-05T02:46:29.284Z,14.46
2024-03-05T02:49:37.988Z,14.53
2024-03-05T02:52:46.359Z,14.42
2024-03-05T02:55:53.105Z,14.29
2024-03-05T02:58:59.880Z,14.33
2024-03-05T03:02:06.796Z,14.47
2024-03-05T03:05:14.196Z,13.99
2024-03-05T03:08:22.129Z,14.13
2024-03-05T03:11:29.448Z,13.91
2024-03-05T03:14:35.940Z,14.10
2024-03-05T03:17:42.843Z,14.22
2024-03-05T03:20:49.146Z,14.08
2024-03-05T03:23:57.426Z,14.51
2024-03-05T03:27:04.554Z,14.91
2024-03-05T03:30:19.337Z,14.81
2024-03-05T03:33:27.699Z,14.54
2024-03-05T03:36:34.568Z,14.52
2024-03-05T03:39:44.445Z,14.70
2024-03-05T03:42:51.988Z,14.65
2024-03-05T03:45:58.707Z,14.52
2024-03-05T03:49:06.905Z,14.22
2024-03-05T03:52:13.536Z,14.38
2024-03-05T03:55:21.859Z,14.28
2024-03-05T03:58:29.078Z,14.31
2024-03-05T04:01:36.367Z,14.26
2024-03-05T04:04:43.128Z,14.15
2024-03-05T04:07:49.683Z,14.69
2024-03-05T04:10:57.618Z,14.38
2024-03-05T04:14:04.801Z,14.34
2024-03-05T04:17:11.976Z,14.29
2024-03-05T04:20:18.701Z,14.58
2024-03-05T04:23:25.727Z,13.96
2024-03-05T04:26:38.995Z,14.25
2024-03-05T04:29:48.660Z,14.18
2024-03-05T04:33:05.355Z,14.08
2024-03-05T04:36:11.873Z,13.97
2024-03-05T04:39:18.437Z,14.13
2024-03-05T04:42:26.383Z,13.93
2024-03-05T04:45:32.903Z,13.70
2024-03-05T04:48:40.600Z,14.00
2024-03-05T04:51:47.201Z,14.40
2024-03-05T04:54:55.222Z,13.77
2024-03-05T04:58:02.686Z,14.54
2024-03-05T05:01:09.685Z,14.03
2024-03-05T05:04:17.258Z,13.47
2024-03-05T05:07:25.260Z,13.40
2024-03-05T05:10:33.401Z,14.11
2024-03-05T05:13:44.449Z,13.88
2024-03-05T05:16:53.073Z,13.49
2024-03-05T05:20:01.865Z,14.19
2024-03-05T05:23:08.759Z,14.03
2024-03-05T05:26:15.173Z,14.04
2024-03-05T05:29:31.752Z,13.19
2024-03-05T05:32:47.093Z,14.02
2024-03-05T05:35:54.010Z,13.44
2024-03-05T05:39:01.507Z,13.34
2024-03-05T05:42:08.933Z,13.35
2024-03-05T05:45:16.975Z,14.32
2024-03-05T05:48:29.553Z,13.58
2024-03-05T05:51:36.698Z,13.92
2024-03-05T05:54:44.940Z,13.91
2024-03-05T05:57:53.025Z,14.23
2024-03-05T06:01:00.821Z,13.98
2024-03-05T06:04:07.677Z,13.82
2024-03-05T06:07:14.337Z,14.31
2024-03-05T06:10:21.291Z,13.81
2024-03-05T06:13:28.212Z,14.05
2024-03-05T06:16:36.455Z,14.15
2024-03-05T06:19:43.231Z,14.08
2024-03-05T06:22:50.018Z,14.83
2024-03-05T06:25:56.883Z,14.93
2024-03-05T06:29:05.638Z,14.79
2024-03-05T06:32:14.087Z,15.43
2024-03-05T06:35:24.410Z,14.97
2024-03-05T06:38:30.975Z,15.20
2024-03-05T06:41:38.669Z,15.00
2024-03-05T06:44:48.882Z,14.58
2024-03-05T06:48:10.429Z,15.14
2024-03-05T06:51:33.020Z,14.75
2024-03-05T06:54:57.134Z,13.08
2024-03-05T06:58:05.613Z,13.86
2024-03-05T07:01:13.034Z,13.89
2024-03-05T07:04:21.298Z,14.42
2024-03-05T07:07:27.572Z,14.59
2024-03-05T07:10:35.262Z,14.89
2024-03-05T07:13:45.608Z,14.25
2024-03-05T07:16:53.510Z,14.32
2024-03-05T07:20:04.485Z,14.60
2024-03-05T07:23:10.955Z,14.57
2024-03-05T07:26:17.729Z,14.60
2024-03-05T07:29:24.337Z,15.17
2024-03-05T07:32:30.973Z,14.41
2024-03-05T07:35:38.909Z,15.03
2024-03-05T07:38:45.263Z,14.46
2024-03-05T07:41:51.652Z,13.94
2024-03-05T07:44:58.229Z,12.79
2024-03-05T07:48:04.513Z,13.86
2024-03-05T07:51:13.077Z,14.06
2024-03-05T07:54:22.097Z,14.85
2024-03-05T07:57:28.605Z,14.34
2024-03-05T08:00:36.763Z,15.34
2024-03-05T08:04:01.756Z,14.70
2024-03-05T08:07:12.404Z,13.61
2024-03-05T08:10:19.539Z,14.15
2024-03-05T08:13:25.808Z,14.26
2024-03-05T08:16:35.614Z,14.63
2024-03-05T08:19:43.039Z,14.62
2024-03-05T08:22:51.281Z,13.87
2024-03-05T08:25:58.154Z,13.41
2024-03-05T08:29:05.520Z,14.71
2024-03-05T08:32:12.824Z,15.38
2024-03-05T08:35:19.331Z,14.72
2024-03-05T08:38:28.301Z,14.71
2024-03-05T08:41:36.276Z,14.78
2024-03-05T08:44:42.760Z,14.51
2024-03-05T08:47:50.075Z,14.86
2024-03-05T08:50:56.334Z,14.73
2024-03-05T08:54:04.295Z,13.79
2024-03-05T08:57:11.144Z,15.23
2024-03-05T09:00:32.268Z,14.44
2024-03-05T09:03:45.550Z,14.64
2024-03-05T09:06:54.553Z,15.70
2024-03-05T09:10:02.659Z,14.63
2024-03-05T09:13:09.805Z,15.14
2024-03-05T09:16:16.413Z,15.09
2024-03-05T09:19:24.250Z,15.13
2024-03-05T09:22:30.799Z,15.79
2024-03-05T09:25:40.205Z,16.62
2024-03-05T09:28:46.691Z,16.10
2024-03-05T09:31:53.061Z,16.22
2024-03-05T09:34:59.738Z,15.65
2024-03-05T09:38:06.587Z,14.45
2024-03-05T09:41:15.146Z,15.04
2024-03-05T09:44:22.758Z,15.73
2024-03-05T09:47:31.605Z,15.15
2024-03-05T09:50:39.303Z,15.40
2024-03-05T09:53:45.469Z,15.52
2024-03-05T09:56:56.525Z,15.95
2024-03-05T10:00:05.404Z,15.85
2024-03-05T10:03:12.400Z,16.13
2024-03-05T10:06:18.637Z,16.14
2024-03-05T10:09:26.828Z,16.18
2024-03-05T10:12:34.505Z,15.49
2024-03-05T10:15:44.403Z,16.13
2024-03-05T10:18:51.280Z,15.43
2024-03-05T10:22:12.149Z,16.54
2024-03-05T10:25:19.411Z,15.74
2024-03-05T10:28:32.260Z,16.47
2024-03-05T10:31:41.065Z,15.95
2024-03-05T10:34:47.716Z,16.21
2024-03-05T10:37:59.223Z,14.80
2024-03-05T10:41:08.994Z,15.51
2024-03-05T10:44:18.388Z,15.66
2024-03-05T10:47:28.256Z,15.94
2024-03-05T10:50:38.383Z,16.21
2024-03-05T10:53:45.296Z,15.53
2024-03-05T10:56:53.518Z,14.73
2024-03-05T11:00:00.545Z,14.39
2024-03-05T11:03:09.437Z,14.65
2024-03-05T11:06:18.399Z,15.55
2024-03-05T11:09:25.497Z,15.53
2024-03-05T11:12:32.302Z,15.16
2024-03-05T11:15:41.387Z,14.99
2024-03-05T11:18:49.204Z,14.44
2024-03-05T11:21:56.038Z,15.05
2024-03-05T11:25:04.209Z,15.28
2024-03-05T11:28:12.324Z,14.70
2024-03-05T11:31:22.584Z,16.26
2024-03-05T11:34:30.734Z,15.68
2024-03-05T11:37:49.110Z,15.81
2024-03-05T11:41:00.821Z,15.60
2024-03-05T11:44:08.432Z,15.37
2024-03-05T11:47:21.730Z,15.58
2024-03-05T11:50:27.899Z,16.11
2024-03-05T11:53:38.190Z,15.72
2024-03-05T11:56:47.013Z,15.78
2024-03-05T11:59:53.667Z,15.12
2024-03-05T12:03:01.880Z,15.15
2024-03-05T12:06:08.887Z,15.01
2024-03-05T12:09:20.180Z,15.73
2024-03-05T12:12:26.726Z,14.93
2024-03-05T12:15:34.669Z,15.81
2024-03-05T12:18:42.390Z,15.88
2024-03-05T12:21:50.007Z,15.61
2024-03-05T12:24:56.730Z,15.42
2024-03-05T12:28:06.094Z,15.64
2024-03-05T12:31:13.076Z,15.00
2024-03-05T12:34:21.829Z,15.70
2024-03-05T12:37:30.992Z,14.54
2024-03-05T12:40:37.767Z,15.50
2024-03-05T12:43:53.352Z,15.09
2024-03-05T12:47:09.455Z,14.59
2024-03-05T12:50:20.731Z,14.52
2024-03-05T12:53:27.549Z,15.62
2024-03-05T12:56:43.066Z,15.45
2024-03-05T12:59:49.394Z,15.10
2024-03-05T13:02:57.393Z,15.46
2024-03-05T13:06:05.749Z,15.57
2024-03-05T13:09:12.349Z,14.80
2024-03-05T13:12:20.275Z,14.73
2024-03-05T13:15:26.950Z,15.08
2024-03-05T13:18:33.245Z,15.51
2024-03-05T13:21:41.684Z,14.77
2024-03-05T13:24:48.759Z,14.19
2024-03-05T13:27:55.980Z,14.58
2024-03-05T13:31:04.558Z,15.39
2024-03-05T13:34:11.340Z,15.66
2024-03-05T13:37:22.818Z,15.62
2024-03-05T13:40:29.734Z,15.37
2024-03-05T13:43:36.729Z,14.63
2024-03-05T13:46:43.189Z,14.89
2024-03-05T13:49:49.845Z,14.81
2024-03-05T13:52:57.989Z,14.39
2024-03-05T13:56:06.135Z,14.66
2024-03-05T13:59:13.037Z,14.97
2024-03-05T14:02:19.873Z,14.73
2024-03-05T14:05:26.703Z,15.00
2024-03-05T14:08:34.691Z,14.95
2024-03-05T14:11:42.230Z,14.74
2024-03-05T14:14:48.566Z,14.79
2024-03-05T14:17:55.320Z,15.28
2024-03-05T14:21:02.656Z,15.36
2024-03-05T14:24:14.107Z,15.01
2024-03-05T14:27:20.924Z,14.79
2024-03-05T14:30:27.683Z,15.23
2024-03-05T14:33:34.467Z,15.46
2024-03-05T14:36:41.310Z,15.98
2024-03-05T14:39:50.039Z,16.52
2024-03-05T14:42:57.030Z,15.48
2024-03-05T14:46:03.906Z,15.14
2024-03-05T14:49:12.468Z,15.16
2024-03-05T14:52:19.309Z,15.60
2024-03-05T14:55:28.554Z,15.74
2024-03-05T14:58:34.999Z,15.57
2024-03-05T15:01:41.889Z,15.37
2024-03-05T15:04:48.550Z,15.03
2024-03-05T15:07:55.717Z,14.85
2024-03-05T15:11:03.776Z,14.46
2024-03-05T15:14:10.531Z,14.44
2024-03-05T15:17:17.591Z,15.76
2024-03-05T15:20:25.194Z,14.56
2024-03-05T15:23:31.985Z,14.51
2024-03-05T15:26:42.671Z,15.18
2024-03-05T15:29:51.962Z,15.44
2024-03-05T15:32:58.942Z,15.24
2024-03-05T15:36:06.629Z,15.76
2024-03-05T15:39:16.117Z,15.58
2024-03-05T15:42:24.159Z,15.62
2024-03-05T15:45:31.983Z,15.88
2024-03-05T15:48:38.789Z,15.40
2024-03-05T15:51:45.355Z,15.49
2024-03-05T15:54:51.719Z,14.46
2024-03-05T15:58:09.749Z,16.29
2024-03-05T16:01:18.070Z,14.31
2024-03-05T16:04:48.605Z,15.02
2024-03-05T16:07:50.885Z,14.92
2024-03-05T16:10:57.547Z,15.27
2024-03-05T16:14:06.811Z,14.95
2024-03-05T16:17:14.385Z,15.48
2024-03-05T16:20:21.121Z,14.72
2024-03-05T16:23:27.754Z,15.17
2024-03-05T16:26:35.043Z,14.70
2024-03-05T16:29:42.820Z,15.81
2024-03-05T16:32:49.220Z,15.23
2024-03-05T16:35:56.044Z,14.71
2024-03-05T16:39:02.892Z,14.61
2024-03-05T16:42:12.391Z,14.99
2024-03-05T16:45:20.434Z,14.30
2024-03-05T16:48:26.621Z,14.33
2024-03-05T16:51:33.044Z,14.65
2024-03-05T16:54:39.586Z,14.78
2024-03-05T16:57:47.090Z,15.47
2024-03-05T17:00:58.037Z,14.86
2024-03-05T17:04:08.915Z,14.76
2024-03-05T17:07:15.175Z,15.42
2024-03-05T17:10:24.934Z,15.44
2024-03-05T17:13:37.315Z,15.37
2024-03-05T17:16:47.123Z,15.37
2024-03-05T17:19:57.681Z,14.44
2024-03-05T17:23:04.667Z,15.20
2024-03-05T17:26:13.473Z,15.30
2024-03-05T17:29:19.866Z,15.08
2024-03-05T17:32:32.695Z,15.44
2024-03-05T17:35:39.339Z,15.71
2024-03-05T17:38:46.029Z,15.59
2024-03-05T17:41:53.108Z,15.60
2024-03-05T17:44:59.912Z,15.37
2024-03-05T17:48:08.753Z,15.65
2024-03-05T17:51:15.304Z,14.99
2024-03-05T17:54:22.558Z,15.03
2024-03-05T17:57:32.722Z,15.52
2024-03-05T18:00:46.377Z,15.30
2024-03-05T18:03:54.872Z,15.65
2024-03-05T18:07:03.142Z,15.50
2024-03-05T18:10:10.376Z,14.85
2024-03-05T18:13:18.724Z,15.07
2024-03-05T18:16:26.225Z,14.83
2024-03-05T18:19:34.914Z,14.95
2024-03-05T18:22:41.816Z,14.46
2024-03-05T18:25:49.737Z,14.53
2024-03-05T18:28:56.390Z,14.96
2024-03-05T18:32:05.640Z,14.78
2024-03-05T18:35:13.582Z,14.56
2024-03-05T18:38:27.839Z,14.42
2024-03-05T18:41:36.169Z,14.70
2024-03-05T18:44:42.689Z,14.74
2024-03-05T18:47:59.234Z,14.81
2024-03-05T18:51:15.296Z,14.93
2024-03-05T18:54:23.604Z,14.07
2024-03-05T18:57:30.620Z,14.43
2024-03-05T19:00:38.940Z,14.81
2024-03-05T19:03:46.983Z,14.89
2024-03-05T19:06:54.922Z,14.92
2024-03-05T19:10:01.232Z,15.38
2024-03-05T19:13:08.137Z,14.90
2024-03-05T19:16:15.590Z,14.63
2024-03-05T19:19:22.336Z,14.23
2024-03-05T19:22:30.864Z,14.87
2024-03-05T19:25:37.183Z,14.82
2024-03-05T19:28:44.672Z,14.32
2024-03-05T19:31:51.201Z,14.41
2024-03-05T19:34:58.222Z,14.40
2024-03-05T19:38:07.276Z,14.60
2024-03-05T19:41:15.215Z,14.31
2024-03-05T19:44:22.646Z,14.81
2024-03-05T19:47:34.190Z,14.36
2024-03-05T19:50:40.660Z,14.62
2024-03-05T19:53:49.593Z,14.66
2024-03-05T19:56:57.169Z,14.67
2024-03-05T20:00:13.509Z,15.33
2024-03-05T20:03:20.536Z,15.26
2024-03-05T20:06:27.334Z,14.32
2024-03-05T20:09:36.288Z,14.51
2024-03-05T20:12:42.942Z,14.20
2024-03-05T20:15:49.828Z,14.52
2024-03-05T20:18:56.542Z,14.87
2024-03-05T20:22:02.877Z,15.08
2024-03-05T20:25:11.011Z,14.87
2024-03-05T20:28:18.169Z,14.54
2024-03-05T20:31:24.944Z,14.67
2024-03-05T20:34:32.992Z,14.94
2024-03-05T20:37:39.767Z,13.40
2024-03-05T20:40:47.802Z,14.75
2024-03-05T20:43:54.951Z,14.70
2024-03-05T20:47:01.804Z,14.14
2024-03-05T20:50:10.775Z,14.25
2024-03-05T20:53:17.629Z,14.62
2024-03-05T20:56:26.127Z,13.82
2024-03-05T20:59:34.718Z,14.48
2024-03-05T21:02:42.480Z,14.36
2024-03-05T21:05:49.152Z,14.15
2024-03-05T21:08:55.609Z,13.54
2024-03-05T21:12:04.888Z,13.98
2024-03-05T21:15:13.923Z,14.05
2024-03-05T21:18:21.443Z,13.45
2024-03-05T21:21:28.075Z,13.39
2024-03-05T21:24:37.204Z,13.74
2024-03-05T21:27:46.805Z,13.46
2024-03-05T21:30:53.644Z,12.98
2024-03-05T21:34:00.025Z,13.70
2024-03-05T21:37:07.600Z,13.33
2024-03-05T21:40:15.176Z,13.33
2024-03-05T21:43:23.685Z,13.44
2024-03-05T21:46:30.309Z,13.68
2024-03-05T21:49:37.176Z,13.18
2024-03-05T21:52:47.474Z,13.07
2024-03-05T21:55:54.458Z,12.10
2024-03-05T21:59:04.743Z,12.64
2024-03-05T22:02:10.982Z,12.38
2024-03-05T22:05:17.550Z,12.10
2024-03-05T22:08:23.823Z,11.08
2024-03-05T22:11:30.560Z,11.47
2024-03-05T22:14:38.368Z,12.63
2024-03-05T22:17:45.129Z,11.70
2024-03-05T22:20:54.669Z,10.70
2024-03-05T22:24:01.592Z,11.44
2024-03-05T22:27:07.841Z,12.75
2024-03-05T22:30:16.346Z,11.52
2024-03-05T22:33:23.836Z,10.88
2024-03-05T22:36:30.487Z,11.16
2024-03-05T22:39:38.142Z,12.14
2024-03-05T22:42:46.265Z,11.08
2024-03-05T22:45:54.796Z,10.39
2024-03-05T22:49:02.364Z,11.38
2024-03-05T22:52:08.524Z,11.86
2024-03-05T22:55:14.747Z,11.49
2024-03-05T22:58:21.355Z,11.31
2024-03-05T23:01:29.410Z,11.70
2024-03-05T23:04:36.140Z,10.56
2024-03-05T23:07:42.331Z,10.89
2024-03-05T23:10:49.805Z,9.94
2024-03-05T23:13:57.110Z,9.74
2024-03-05T23:17:05.015Z,9.78
2024-03-05T23:20:12.946Z,10.55
2024-03-05T23:23:19.722Z,10.11
2024-03-05T23:26:26.482Z,10.36
2024-03-05T23:29:32.843Z,11.51
2024-03-05T23:32:41.081Z,11.49
2024-03-05T23:35:48.914Z,11.50
2024-03-05T23:38:55.678Z,11.21
2024-03-05T23:42:02.217Z,10.61
2024-03-05T23:45:10.703Z,10.23
2024-03-05T23:48:18.790Z,10.05
2024-03-05T23:51:26.664Z,9.89
2024-03-05T23:54:34.159Z,9.76
2024-03-05T23:57:40.811Z,10.18
